createdAt,value
2018-02-24T00:02:12.223Z,42.20
2018-02-24T00:04:39.760Z,40.70
2018-02-24T00:07:07.375Z,45.17
2018-02-24T00:09:34.922Z,38.43
2018-02-24T00:12:02.492Z,43.43
2018-02-24T00:14:30.054Z,36.60
2018-02-24T00:16:57.656Z,38.47
2018-02-24T00:19:25.200Z,41.80
2018-02-24T00:21:53.568Z,39.50
2018-02-24T00:24:21.142Z,34.57
2018-02-24T00:26:48.697Z,39.47
2018-02-24T00:29:16.276Z,37.27
2018-02-24T00:31:44.606Z,44.50
2018-02-24T00:34:12.148Z,37.33
2018-02-24T00:36:39.722Z,37.63
2018-02-24T00:39:07.241Z,38.80
2018-02-24T00:41:34.806Z,34.50
2018-02-24T00:44:02.406Z,40.93
2018-02-24T00:46:29.926Z,41.20
2018-02-24T00:48:57.480Z,41.53
2018-02-24T00:51:25.099Z,39.53
2018-02-24T00:53:52.710Z,39.30
2018-02-24T00:56:21.008Z,37.87
2018-02-24T00:58:48.588Z,37.97
2018-02-24T01:01:16.146Z,38.67
2018-02-24T01:03:43.702Z,36.50
2018-02-24T01:06:11.225Z,31.80
2018-02-24T01:08:38.877Z,39.30
2018-02-24T01:11:06.471Z,36.73
2018-02-24T01:13:34.045Z,37.47
2018-02-24T01:16:01.559Z,40.17
2018-02-24T01:18:29.125Z,41.10
2018-02-24T01:20:56.676Z,37.87
2018-02-24T01:23:24.210Z,39.77
2018-02-24T01:25:51.781Z,36.03
2018-02-24T01:28:20.082Z,38.47
2018-02-24T01:30:47.651Z,37.97
2018-02-24T01:33:15.269Z,37.10
2018-02-24T01:35:42.832Z,34.70
2018-02-24T01:38:11.125Z,39.43
2018-02-24T01:40:38.685Z,36.03
2018-02-24T01:43:06.984Z,37.87
2018-02-24T01:45:34.537Z,36.27
2018-02-24T01:48:02.055Z,36.10
2018-02-24T01:50:41.479Z,32.23
2018-02-24T01:53:09.000Z,36.10
2018-02-24T01:55:36.564Z,33.57
2018-02-24T01:58:04.089Z,38.73
2018-02-24T02:00:31.683Z,31.87
2018-02-24T02:02:59.274Z,34.10
2018-02-24T02:05:27.008Z,37.20
2018-02-24T02:07:54.545Z,35.73
2018-02-24T02:10:22.083Z,40.93
2018-02-24T02:12:50.448Z,43.93
2018-02-24T02:15:18.009Z,37.07
2018-02-24T02:17:45.522Z,40.97
2018-02-24T02:20:13.065Z,35.50
2018-02-24T02:22:40.621Z,36.67
2018-02-24T02:25:08.150Z,42.97
2018-02-24T02:27:35.981Z,38.93
2018-02-24T02:30:03.511Z,38.53
2018-02-24T02:32:31.072Z,39.33
2018-02-24T02:34:58.596Z,35.47
2018-02-24T02:37:26.209Z,36.03
2018-02-24T02:39:53.760Z,40.43
2018-02-24T02:42:21.324Z,42.77
2018-02-24T02:44:48.854Z,39.90
2018-02-24T02:47:16.452Z,38.33
2018-02-24T02:49:44.047Z,38.23
2018-02-24T02:52:11.583Z,40.13
2018-02-24T02:54:39.096Z,39.57
2018-02-24T02:57:06.660Z,36.23
2018-02-24T02:59:34.216Z,40.17
2018-02-24T03:02:02.561Z,40.90
2018-02-24T03:04:30.166Z,39.50
2018-02-24T03:06:57.749Z,38.57
2018-02-24T03:09:25.288Z,37.10
2018-02-24T03:11:52.834Z,41.17
2018-02-24T03:14:20.410Z,40.60
2018-02-24T03:16:47.958Z,41.73
2018-02-24T03:19:15.561Z,42.37
2018-02-24T03:21:43.131Z,39.23
2018-02-24T03:24:10.698Z,44.10
2018-02-24T03:26:38.243Z,42.63
2018-02-24T03:29:05.806Z,47.30
2018-02-24T03:31:33.511Z,42.43
2018-02-24T03:34:00.995Z,43.97
2018-02-24T03:36:28.532Z,43.50
2018-02-24T03:38:56.867Z,44.00
2018-02-24T03:41:24.434Z,45.63
2018-02-24T03:43:52.000Z,46.77
2018-02-24T03:46:24.075Z,48.33
2018-02-24T03:48:51.665Z,43.33
2018-02-24T03:51:19.452Z,43.63
2018-02-24T03:53:46.980Z,48.50
2018-02-24T03:56:14.511Z,44.13
2018-02-24T03:58:42.118Z,42.33
2018-02-24T04:01:09.641Z,43.47
2018-02-24T04:03:37.216Z,40.40
2018-02-24T04:06:04.750Z,49.50
2018-02-24T04:08:32.309Z,44.80
2018-02-24T04:10:59.883Z,46.07
2018-02-24T04:13:27.428Z,48.00
2018-02-24T04:15:54.998Z,40.87
2018-02-24T04:18:22.516Z,50.07
2018-02-24T04:20:50.094Z,44.07
2018-02-24T04:23:17.629Z,43.77
2018-02-24T04:25:45.245Z,50.17
2018-02-24T04:28:12.778Z,44.20
2018-02-24T04:30:40.350Z,49.20
2018-02-24T04:33:07.892Z,45.77
2018-02-24T04:35:35.421Z,47.53
2018-02-24T04:38:02.999Z,43.07
2018-02-24T04:40:30.530Z,45.23
2018-02-24T04:42:58.068Z,48.53
2018-02-24T04:45:25.624Z,47.70
2018-02-24T04:47:53.922Z,44.03
2018-02-24T04:50:21.483Z,47.10
2018-02-24T04:52:49.141Z,49.07
2018-02-24T04:55:16.702Z,47.57
2018-02-24T04:57:44.225Z,53.73
2018-02-24T05:00:11.839Z,49.70
2018-02-24T05:02:39.411Z,47.20
2018-02-24T05:05:06.972Z,45.60
2018-02-24T05:07:34.533Z,44.77
2018-02-24T05:10:02.089Z,46.73
2018-02-24T05:12:29.631Z,50.00
2018-02-24T05:14:57.232Z,46.37
2018-02-24T05:17:24.773Z,46.10
2018-02-24T05:19:53.159Z,44.57
2018-02-24T05:22:20.845Z,52.17
2018-02-24T05:24:48.413Z,49.30
2018-02-24T05:27:16.211Z,52.47
2018-02-24T05:29:43.787Z,47.77
2018-02-24T05:32:11.525Z,44.33
2018-02-24T05:34:39.074Z,46.00
2018-02-24T05:37:07.499Z,47.63
2018-02-24T05:39:35.044Z,50.40
2018-02-24T05:42:02.664Z,47.43
2018-02-24T05:44:31.013Z,51.00
2018-02-24T05:46:58.703Z,52.03
2018-02-24T05:49:26.270Z,48.10
2018-02-24T05:51:54.796Z,48.30
2018-02-24T05:54:22.356Z,46.87
2018-02-24T05:56:49.946Z,47.20
2018-02-24T05:59:17.481Z,51.93
2018-02-24T06:01:45.055Z,47.57
2018-02-24T06:04:12.618Z,49.20
2018-02-24T06:06:40.213Z,45.50
2018-02-24T06:09:07.784Z,46.70
2018-02-24T06:11:36.178Z,45.30
2018-02-24T06:14:03.952Z,54.90
2018-02-24T06:16:31.605Z,48.53
2018-02-24T06:18:59.186Z,47.40
2018-02-24T06:21:26.800Z,44.33
2018-02-24T06:23:54.375Z,51.47
2018-02-24T06:26:21.989Z,44.57
2018-02-24T06:28:49.522Z,54.73
2018-02-24T06:31:17.040Z,47.80
2018-02-24T06:33:45.361Z,45.50
2018-02-24T06:36:12.889Z,46.03
2018-02-24T06:38:40.462Z,48.80
2018-02-24T06:41:07.997Z,45.30
2018-02-24T06:43:35.557Z,44.87
2018-02-24T06:46:03.875Z,49.23
2018-02-24T06:48:31.405Z,50.03
2018-02-24T06:50:58.954Z,59.20
2018-02-24T06:53:26.518Z,51.70
2018-02-24T06:55:54.037Z,49.33
2018-02-24T06:58:21.601Z,48.47
2018-02-24T07:00:49.169Z,51.03
2018-02-24T07:03:16.735Z,55.83
2018-02-24T07:05:44.266Z,44.63
2018-02-24T07:08:11.821Z,46.70
2018-02-24T07:10:39.382Z,46.80
2018-02-24T07:13:06.924Z,42.80
2018-02-24T07:15:34.500Z,41.53
2018-02-24T07:18:02.073Z,44.70
2018-02-24T07:20:29.673Z,45.60
2018-02-24T07:22:57.194Z,47.50
2018-02-24T07:25:24.732Z,45.07
2018-02-24T07:27:52.355Z,47.33
2018-02-24T07:30:19.980Z,42.27
2018-02-24T07:32:47.508Z,45.60
2018-02-24T07:35:15.240Z,47.13
2018-02-24T07:37:42.786Z,43.13
2018-02-24T07:40:10.391Z,47.90
2018-02-24T07:42:38.693Z,44.93
2018-02-24T07:45:06.326Z,47.43
2018-02-24T07:47:33.910Z,40.93
2018-02-24T07:50:01.460Z,38.60
2018-02-24T07:52:29.014Z,44.53
2018-02-24T07:54:56.597Z,41.70
2018-02-24T07:57:24.186Z,42.73
2018-02-24T07:59:52.507Z,39.03
2018-02-24T08:02:20.073Z,40.00
2018-02-24T08:04:47.693Z,40.17
2018-02-24T08:07:15.257Z,47.67
2018-02-24T08:09:42.920Z,44.40
2018-02-24T08:12:10.469Z,45.63
2018-02-24T08:14:38.812Z,45.50
2018-02-24T08:17:06.388Z,39.80
2018-02-24T08:19:33.952Z,43.10
2018-02-24T08:22:01.572Z,38.73
2018-02-24T08:24:29.130Z,40.30
2018-02-24T08:26:56.670Z,40.57
2018-02-24T08:29:24.271Z,39.53
2018-02-24T08:31:51.797Z,38.93
2018-02-24T08:34:19.345Z,40.27
2018-02-24T08:36:47.377Z,37.07
2018-02-24T08:39:16.410Z,34.97
2018-02-24T08:41:43.972Z,41.87
2018-02-24T08:44:11.500Z,39.83
2018-02-24T08:46:39.153Z,40.37
2018-02-24T08:49:06.704Z,41.97
2018-02-24T08:51:34.244Z,43.60
2018-02-24T08:54:01.808Z,33.63
2018-02-24T08:56:29.431Z,35.37
2018-02-24T08:58:56.973Z,35.23
2018-02-24T09:01:24.550Z,33.93
2018-02-24T09:03:52.842Z,38.63
2018-02-24T09:06:20.390Z,38.70
2018-02-24T09:08:47.957Z,39.67
2018-02-24T09:11:15.499Z,34.57
2018-02-24T09:13:43.078Z,32.37
2018-02-24T09:16:10.614Z,36.50
2018-02-24T09:18:38.161Z,32.47
2018-02-24T09:21:05.745Z,39.20
2018-02-24T09:23:33.275Z,36.00
2018-02-24T09:26:00.865Z,37.37
2018-02-24T09:28:28.422Z,35.90
2018-02-24T09:30:55.987Z,33.17
2018-02-24T09:33:23.692Z,39.20
2018-02-24T09:35:51.340Z,36.73
2018-02-24T09:38:19.046Z,38.50
2018-02-24T09:40:46.627Z,39.13
2018-02-24T09:43:14.958Z,38.73
2018-02-24T09:45:43.054Z,30.50
2018-02-24T09:48:10.586Z,33.77
2018-02-24T09:50:38.165Z,34.07
2018-02-24T09:53:05.729Z,31.67
2018-02-24T09:55:33.299Z,33.60
2018-02-24T09:58:00.855Z,36.37
2018-02-24T10:00:28.465Z,34.57
2018-02-24T10:02:56.075Z,35.03
2018-02-24T10:05:23.631Z,36.60
2018-02-24T10:07:51.180Z,35.17
2018-02-24T10:10:18.717Z,36.53
2018-02-24T10:12:46.366Z,31.93
2018-02-24T10:15:13.894Z,33.77
2018-02-24T10:17:41.434Z,36.47
2018-02-24T10:20:09.004Z,33.67
2018-02-24T10:22:37.358Z,32.90
2018-02-24T10:25:04.932Z,35.40
2018-02-24T10:27:32.545Z,31.23
2018-02-24T10:30:00.109Z,34.13
2018-02-24T10:32:27.666Z,32.27
2018-02-24T10:34:55.218Z,34.50
2018-02-24T10:37:22.773Z,34.73
2018-02-24T10:39:50.546Z,36.63
2018-02-24T10:42:19.912Z,31.63
2018-02-24T10:44:52.530Z,30.93
2018-02-24T10:47:20.989Z,32.27
2018-02-24T10:49:48.607Z,32.23
2018-02-24T10:52:16.189Z,37.33
2018-02-24T10:54:43.919Z,36.63
2018-02-24T10:57:11.520Z,34.70
2018-02-24T10:59:39.992Z,32.97
2018-02-24T11:02:08.396Z,33.97
2018-02-24T11:04:35.978Z,28.73
2018-02-24T11:07:03.493Z,28.60
2018-02-24T11:09:31.817Z,29.87
2018-02-24T11:11:59.377Z,28.93
2018-02-24T11:14:26.954Z,30.63
2018-02-24T11:16:54.529Z,29.47
2018-02-24T11:19:22.085Z,29.13
2018-02-24T11:21:49.733Z,28.27
2018-02-24T11:24:19.575Z,29.17
2018-02-24T11:26:47.097Z,28.77
2018-02-24T11:29:14.630Z,27.90
2018-02-24T11:31:42.218Z,28.53
2018-02-24T11:34:09.780Z,31.50
2018-02-24T11:36:37.363Z,31.43
2018-02-24T11:39:04.940Z,30.60
2018-02-24T11:41:32.649Z,30.20
2018-02-24T11:44:00.253Z,27.27
2018-02-24T11:46:27.976Z,27.80
2018-02-24T11:48:55.769Z,26.87
2018-02-24T11:51:23.366Z,23.97
2018-02-24T11:53:51.705Z,29.20
2018-02-24T11:56:19.339Z,28.23
2018-02-24T11:58:46.898Z,30.50
2018-02-24T12:01:14.443Z,30.20
2018-02-24T12:03:41.990Z,31.67
2018-02-24T12:06:10.314Z,25.53
2018-02-24T12:08:37.853Z,25.80
2018-02-24T12:11:05.464Z,27.57
2018-02-24T12:13:33.025Z,25.97
2018-02-24T12:16:00.587Z,27.27
2018-02-24T12:18:28.133Z,23.17
2018-02-24T12:20:55.741Z,24.40
2018-02-24T12:23:23.407Z,28.43
2018-02-24T12:25:50.993Z,25.37
2018-02-24T12:28:18.577Z,27.23
2018-02-24T12:30:46.101Z,23.90
2018-02-24T12:33:13.668Z,24.30
2018-02-24T12:35:41.220Z,23.23
2018-02-24T12:38:08.776Z,23.70
2018-02-24T12:40:36.384Z,21.80
2018-02-24T12:43:04.017Z,19.13
2018-02-24T12:45:31.618Z,28.03
2018-02-24T12:47:59.212Z,21.67
2018-02-24T12:50:26.782Z,25.13
2018-02-24T12:52:54.336Z,21.27
2018-02-24T12:55:21.914Z,19.73
2018-02-24T12:57:49.459Z,21.37
2018-02-24T13:00:17.034Z,19.23
2018-02-24T13:02:44.629Z,21.37
2018-02-24T13:05:12.259Z,19.17
2018-02-24T13:07:39.804Z,19.53
2018-02-24T13:10:07.377Z,19.47
2018-02-24T13:12:34.945Z,24.47
2018-02-24T13:15:02.483Z,22.30
2018-02-24T13:17:30.061Z,19.60
2018-02-24T13:19:57.624Z,18.43
2018-02-24T13:22:25.226Z,17.83
2018-02-24T13:24:52.840Z,20.83
2018-02-24T13:27:20.391Z,19.07
2018-02-24T13:29:48.016Z,19.30
2018-02-24T13:32:15.556Z,20.13
2018-02-24T13:34:43.895Z,16.10
2018-02-24T13:37:11.564Z,21.47
2018-02-24T13:39:39.089Z,13.97
2018-02-24T13:42:06.794Z,14.97
2018-02-24T13:44:34.377Z,15.40
2018-02-24T13:47:02.801Z,15.90
2018-02-24T13:49:30.391Z,14.70
2018-02-24T13:51:58.000Z,16.77
2018-02-24T13:54:25.594Z,14.07
2018-02-24T13:56:53.263Z,23.63
2018-02-24T13:59:20.838Z,14.77
2018-02-24T14:01:48.389Z,13.57
2018-02-24T14:04:15.946Z,14.40
2018-02-24T14:06:43.652Z,15.50
2018-02-24T14:09:11.995Z,17.57
2018-02-24T14:11:39.554Z,16.17
2018-02-24T14:14:07.114Z,14.27
2018-02-24T14:16:34.686Z,16.70
2018-02-24T14:19:02.269Z,16.70
2018-02-24T14:21:29.945Z,16.57
2018-02-24T14:23:57.556Z,14.23
2018-02-24T14:26:25.079Z,12.87
2018-02-24T14:28:52.639Z,12.57
2018-02-24T14:31:21.008Z,14.90
2018-02-24T14:33:48.776Z,14.40
2018-02-24T14:36:16.342Z,16.23
2018-02-24T14:38:43.901Z,12.97
2018-02-24T14:41:11.456Z,13.13
2018-02-24T14:43:39.021Z,13.67
2018-02-24T14:46:06.587Z,12.33
2018-02-24T14:48:34.164Z,13.80
2018-02-24T14:51:01.708Z,13.70
2018-02-24T14:53:29.315Z,16.37
2018-02-24T14:55:56.885Z,13.57
2018-02-24T14:58:24.457Z,13.70
2018-02-24T15:00:52.020Z,12.00
2018-02-24T15:03:19.551Z,15.27
2018-02-24T15:05:47.147Z,10.03
2018-02-24T15:08:14.884Z,14.60
2018-02-24T15:10:42.453Z,10.77
2018-02-24T15:13:10.748Z,14.07
2018-02-24T15:15:38.383Z,10.37
2018-02-24T15:18:05.924Z,10.33
2018-02-24T15:20:33.489Z,10.40
2018-02-24T15:23:01.013Z,12.83
2018-02-24T15:25:28.593Z,10.93
2018-02-24T15:27:56.141Z,9.57
2018-02-24T15:30:23.694Z,10.23
2018-02-24T15:32:51.237Z,11.40
2018-02-24T15:35:18.828Z,12.07
2018-02-24T15:37:46.373Z,10.57
2018-02-24T15:40:13.930Z,9.67
2018-02-24T15:42:41.456Z,14.73
2018-02-24T15:45:09.018Z,12.37
2018-02-24T15:47:37.405Z,10.70
2018-02-24T15:50:04.959Z,14.33
2018-02-24T15:52:32.520Z,11.30
2018-02-24T15:55:00.101Z,10.47
2018-02-24T15:57:27.648Z,15.13
2018-02-24T15:59:55.216Z,12.60
2018-02-24T16:02:22.901Z,13.20
2018-02-24T16:04:50.434Z,14.03
2018-02-24T16:07:17.988Z,11.47
2018-02-24T16:09:45.592Z,12.27
2018-02-24T16:12:13.166Z,10.10
2018-02-24T16:14:40.852Z,11.80
2018-02-24T16:17:08.350Z,14.47
2018-02-24T16:19:35.916Z,13.67
2018-02-24T16:22:03.532Z,9.40
2018-02-24T16:24:31.062Z,11.77
2018-02-24T16:26:58.618Z,12.07
2018-02-24T16:29:26.146Z,13.20
2018-02-24T16:31:53.682Z,9.63
2018-02-24T16:34:21.208Z,12.27
2018-02-24T16:36:48.770Z,10.97
2018-02-24T16:39:16.336Z,10.90
2018-02-24T16:41:43.921Z,13.03
2018-02-24T16:44:11.472Z,9.93
2018-02-24T16:46:39.021Z,12.23
2018-02-24T16:49:06.601Z,10.60
2018-02-24T16:51:34.114Z,10.60
2018-02-24T16:54:01.683Z,9.87
2018-02-24T16:56:29.256Z,20.03
2018-02-24T16:58:56.782Z,12.43
2018-02-24T17:01:24.300Z,10.83
2018-02-24T17:03:51.863Z,10.83
2018-02-24T17:06:19.407Z,12.73
2018-02-24T17:08:47.008Z,17.50
2018-02-24T17:11:14.562Z,10.50
2018-02-24T17:13:42.138Z,12.37
2018-02-24T17:16:09.704Z,12.57
2018-02-24T17:18:37.404Z,13.97
2018-02-24T17:21:04.987Z,13.70
2018-02-24T17:23:32.514Z,14.90
2018-02-24T17:26:00.086Z,13.90
2018-02-24T17:28:28.425Z,16.03
2018-02-24T17:30:55.991Z,12.57
2018-02-24T17:33:23.586Z,14.97
2018-02-24T17:35:51.137Z,12.90
2018-02-24T17:38:18.705Z,13.27
2018-02-24T17:40:46.249Z,12.77
2018-02-24T17:43:15.557Z,15.17
2018-02-24T17:45:43.183Z,14.50
2018-02-24T17:48:10.709Z,13.00
2018-02-24T17:50:38.275Z,14.30
2018-02-24T17:53:05.827Z,17.70
2018-02-24T17:55:33.390Z,14.43
2018-02-24T17:58:00.965Z,13.23
2018-02-24T18:00:28.577Z,14.70
2018-02-24T18:02:56.097Z,15.40
2018-02-24T18:05:23.721Z,15.80
2018-02-24T18:07:51.252Z,17.67
2018-02-24T18:10:18.773Z,14.70
2018-02-24T18:12:46.361Z,14.93
2018-02-24T18:15:13.897Z,13.00
2018-02-24T18:17:41.526Z,14.40
2018-02-24T18:20:09.123Z,15.87
2018-02-24T18:22:36.740Z,10.40
2018-02-24T18:25:04.289Z,12.70
2018-02-24T18:27:31.837Z,13.10
2018-02-24T18:29:59.396Z,13.63
2018-02-24T18:32:26.947Z,11.67
2018-02-24T18:34:54.537Z,11.90
2018-02-24T18:37:22.066Z,12.93
2018-02-24T18:39:49.650Z,11.77
2018-02-24T18:42:17.947Z,10.57
2018-02-24T18:44:45.523Z,13.70
2018-02-24T18:47:13.092Z,14.13
2018-02-24T18:49:40.625Z,9.70
2018-02-24T18:52:08.200Z,15.27
2018-02-24T18:54:35.768Z,12.30
2018-02-24T18:57:03.343Z,14.83
2018-02-24T18:59:30.911Z,10.33
2018-02-24T19:01:58.465Z,11.27
2018-02-24T19:04:26.003Z,12.63
2018-02-24T19:06:53.578Z,11.63
2018-02-24T19:09:21.166Z,10.67
2018-02-24T19:11:48.752Z,14.57
2018-02-24T19:14:16.288Z,12.80
2018-02-24T19:16:43.878Z,10.67
2018-02-24T19:19:11.448Z,11.27
2018-02-24T19:21:38.989Z,11.23
2018-02-24T19:24:06.549Z,11.70
2018-02-24T19:26:34.860Z,10.23
2018-02-24T19:29:02.471Z,9.37
2018-02-24T19:31:30.002Z,10.27
2018-02-24T19:33:57.635Z,10.83
2018-02-24T19:36:25.169Z,11.80
2018-02-24T19:38:52.810Z,12.17
2018-02-24T19:41:21.282Z,16.00
2018-02-24T19:43:48.837Z,11.07
2018-02-24T19:46:16.550Z,9.90
2018-02-24T19:48:44.159Z,8.63
2018-02-24T19:51:11.791Z,11.93
2018-02-24T19:53:39.729Z,9.23
2018-02-24T19:56:07.272Z,9.47
2018-02-24T19:58:34.838Z,10.10
2018-02-24T20:01:02.371Z,8.80
2018-02-24T20:03:29.952Z,7.37
2018-02-24T20:05:58.247Z,9.23
2018-02-24T20:08:26.601Z,9.83
2018-02-24T20:10:54.990Z,9.97
2018-02-24T20:13:22.560Z,11.77
2018-02-24T20:15:50.130Z,10.63
2018-02-24T20:18:17.970Z,9.53
2018-02-24T20:20:46.310Z,9.80
2018-02-24T20:23:13.884Z,9.40
2018-02-24T20:25:41.471Z,10.70
2018-02-24T20:28:09.027Z,13.97
2018-02-24T20:30:37.372Z,11.27
2018-02-24T20:33:05.742Z,8.90
2018-02-24T20:35:33.265Z,10.57
2018-02-24T20:38:00.873Z,9.13
2018-02-24T20:40:28.433Z,10.33
2018-02-24T20:42:56.005Z,7.83
2018-02-24T20:45:23.557Z,10.13
2018-02-24T20:47:51.147Z,10.00
2018-02-24T20:50:19.464Z,9.73
2018-02-24T20:52:47.025Z,9.77
2018-02-24T20:55:14.571Z,9.00
2018-02-24T20:57:42.184Z,9.57
2018-02-24T21:00:09.736Z,9.03
2018-02-24T21:02:37.293Z,13.40
2018-02-24T21:05:04.883Z,9.37
2018-02-24T21:07:33.220Z,10.03
2018-02-24T21:10:00.773Z,8.43
2018-02-24T21:12:28.342Z,13.13
2018-02-24T21:14:55.909Z,10.27
2018-02-24T21:17:23.427Z,10.33
2018-02-24T21:19:51.006Z,15.53
2018-02-24T21:22:18.570Z,10.97
2018-02-24T21:24:46.123Z,8.67
2018-02-24T21:27:13.705Z,10.03
2018-02-24T21:29:41.247Z,10.10
2018-02-24T21:32:08.830Z,11.00
2018-02-24T21:34:36.366Z,8.23
2018-02-24T21:37:03.986Z,9.97
2018-02-24T21:39:32.321Z,8.57
2018-02-24T21:41:59.838Z,9.00
2018-02-24T21:44:27.446Z,10.13
2018-02-24T21:46:55.011Z,10.80
2018-02-24T21:49:22.571Z,12.30
2018-02-24T21:51:50.151Z,9.07
2018-02-24T21:54:17.711Z,10.80
2018-02-24T21:56:46.059Z,8.33
2018-02-24T21:59:13.669Z,9.03
2018-02-24T22:01:41.373Z,11.03
2018-02-24T22:04:08.954Z,7.67
2018-02-24T22:06:36.499Z,9.93
2018-02-24T22:09:04.246Z,11.90
2018-02-24T22:11:31.865Z,11.07
2018-02-24T22:13:59.670Z,9.97
2018-02-24T22:16:27.220Z,9.17
2018-02-24T22:18:54.814Z,10.43
2018-02-24T22:21:22.389Z,11.93
2018-02-24T22:23:49.981Z,11.20
2018-02-24T22:26:17.573Z,6.90
2018-02-24T22:28:45.186Z,9.43
2018-02-24T22:31:13.513Z,8.50
2018-02-24T22:33:41.044Z,9.43
2018-02-24T22:36:09.400Z,6.83
2018-02-24T22:38:37.720Z,10.53
2018-02-24T22:41:05.288Z,10.80
2018-02-24T22:43:32.967Z,7.70
2018-02-24T22:46:00.553Z,10.40
2018-02-24T22:48:33.795Z,11.87
2018-02-24T22:51:01.386Z,8.17
2018-02-24T22:53:28.909Z,7.00
2018-02-24T22:55:56.454Z,10.47
2018-02-24T22:58:24.039Z,7.93
2018-02-24T23:00:51.565Z,7.30
2018-02-24T23:03:19.184Z,8.93
2018-02-24T23:05:46.782Z,9.23
2018-02-24T23:08:14.669Z,8.07
2018-02-24T23:10:42.230Z,8.87
2018-02-24T23:13:09.808Z,8.13
2018-02-24T23:15:37.352Z,9.23
2018-02-24T23:18:04.929Z,7.23
2018-02-24T23:20:32.505Z,7.60
2018-02-24T23:23:00.839Z,10.63
2018-02-24T23:25:28.388Z,10.47
2018-02-24T23:27:56.717Z,8.33
2018-02-24T23:30:24.270Z,8.00
2018-02-24T23:32:51.871Z,8.23
2018-02-24T23:35:19.429Z,9.73
2018-02-24T23:37:47.006Z,8.10
2018-02-24T23:40:14.567Z,7.73
2018-02-24T23:42:42.112Z,12.30
2018-02-24T23:45:09.685Z,9.00
2018-02-24T23:47:38.037Z,8.27
2018-02-24T23:50:05.624Z,10.63
2018-02-24T23:52:33.159Z,7.97
2018-02-24T23:55:00.705Z,10.13
2018-02-24T23:57:28.377Z,10.07
2018-02-24T23:59:55.990Z,10.37
